sensor_id;sensor_type;location;lat;lon;timestamp;temperature;humidity
13203;DHT22;6666;51.626;7.530;2024-03-08T00:00:17;3.30;99.90
13203;DHT22;6666;51.626;7.530;2024-03-08T00:02:47;3.20;99.90
13203;DHT22;6666;51.626;7.530;2024-03-08T00:05:19;3.20;99.90
13203;DHT22;6666;51.626;7.530;2024-03-08T00:07:48;3.20;99.90
13203;DHT22;6666;51.626;7.530;2024-03-08T00:10:16;3.20;99.90
13203;DHT22;6666;51.626;7.530;2024-03-08T00:12:45;3.20;99.90
13203;DHT22;6666;51.626;7.530;2024-03-08T00:15:16;3.10;99.90
13203;DHT22;6666;51.626;7.530;2024-03-08T00:17:46;3.10;99.90
13203;DHT22;6666;51.626;7.530;2024-03-08T00:20:15;3.00;99.90
13203;DHT22;6666;51.626;7.530;2024-03-08T00:22:47;3.10;99.90
13203;DHT22;6666;51.626;7.530;2024-03-08T00:25:15;3.00;99.90
13203;DHT22;6666;51.626;7.530;2024-03-08T00:27:44;3.00;99.90
13203;DHT22;6666;51.626;7.530;2024-03-08T00:30:16;2.90;99.90
13203;DHT22;6666;51.626;7.530;2024-03-08T00:32:44;2.90;99.90
13203;DHT22;6666;51.626;7.530;2024-03-08T00:35:12;2.90;99.90
13203;DHT22;6666;51.626;7.530;2024-03-08T00:37:41;2.90;99.90
13203;DHT22;6666;51.626;7.530;2024-03-08T00:40:11;2.90;99.90
13203;DHT22;6666;51.626;7.530;2024-03-08T00:42:39;2.90;99.90
13203;DHT22;6666;51.626;7.530;2024-03-08T00:45:09;2.80;99.90
13203;DHT22;6666;51.626;7.530;2024-03-08T00:47:38;2.70;99.90
13203;DHT22;6666;51.626;7.530;2024-03-08T00:50:07;2.80;99.90
13203;DHT22;6666;51.626;7.530;2024-03-08T00:52:35;2.80;99.90
13203;DHT22;6666;51.626;7.530;2024-03-08T00:55:04;2.80;99.90
13203;DHT22;6666;51.626;7.530;2024-03-08T00:57:34;2.80;99.90
13203;DHT22;6666;51.626;7.530;2024-03-08T01:00:03;2.80;99.90
13203;DHT22;6666;51.626;7.530;2024-03-08T01:02:32;2.80;99.90
13203;DHT22;6666;51.626;7.530;2024-03-08T01:05:03;2.70;99.90
13203;DHT22;6666;51.626;7.530;2024-03-08T01:07:34;2.70;99.90
13203;DHT22;6666;51.626;7.530;2024-03-08T01:10:03;2.80;99.90
13203;DHT22;6666;51.626;7.530;2024-03-08T01:12:31;2.80;99.90
13203;DHT22;6666;51.626;7.530;2024-03-08T01:15:01;2.80;99.90
13203;DHT22;6666;51.626;7.530;2024-03-08T01:17:29;2.70;99.90
13203;DHT22;6666;51.626;7.530;2024-03-08T01:19:58;2.70;99.90
13203;DHT22;6666;51.626;7.530;2024-03-08T01:22:26;2.70;99.90
13203;DHT22;6666;51.626;7.530;2024-03-08T01:24:56;2.60;99.90
13203;DHT22;6666;51.626;7.530;2024-03-08T01:27:24;2.60;99.90
13203;DHT22;6666;51.626;7.530;2024-03-08T01:29:53;2.60;99.90
13203;DHT22;6666;51.626;7.530;2024-03-08T01:32:22;2.60;99.90
13203;DHT22;6666;51.626;7.530;2024-03-08T01:34:51;2.60;99.90
13203;DHT22;6666;51.626;7.530;2024-03-08T01:37:19;2.60;99.90
13203;DHT22;6666;51.626;7.530;2024-03-08T01:39:47;2.60;99.90
13203;DHT22;6666;51.626;7.530;2024-03-08T01:42:15;2.60;99.90
13203;DHT22;6666;51.626;7.530;2024-03-08T01:44:44;2.50;99.90
13203;DHT22;6666;51.626;7.530;2024-03-08T01:47:12;2.50;99.90
13203;DHT22;6666;51.626;7.530;2024-03-08T01:49:42;2.60;99.90
13203;DHT22;6666;51.626;7.530;2024-03-08T01:52:10;2.60;99.90
13203;DHT22;6666;51.626;7.530;2024-03-08T01:54:39;2.50;99.90
13203;DHT22;6666;51.626;7.530;2024-03-08T01:57:08;2.50;99.90
13203;DHT22;6666;51.626;7.530;2024-03-08T01:59:36;2.40;99.90
13203;DHT22;6666;51.626;7.530;2024-03-08T02:02:05;2.50;99.90
13203;DHT22;6666;51.626;7.530;2024-03-08T02:04:35;2.50;99.90
13203;DHT22;6666;51.626;7.530;2024-03-08T02:07:06;2.40;99.90
13203;DHT22;6666;51.626;7.530;2024-03-08T02:09:37;2.40;99.90
13203;DHT22;6666;51.626;7.530;2024-03-08T02:12:07;2.40;99.90
13203;DHT22;6666;51.626;7.530;2024-03-08T02:14:38;2.40;99.90
13203;DHT22;6666;51.626;7.530;2024-03-08T02:17:07;2.40;99.90
13203;DHT22;6666;51.626;7.530;2024-03-08T02:19:35;2.40;99.90
13203;DHT22;6666;51.626;7.530;2024-03-08T02:22:06;2.40;99.90
13203;DHT22;6666;51.626;7.530;2024-03-08T02:24:36;2.40;99.90
13203;DHT22;6666;51.626;7.530;2024-03-08T02:27:04;2.50;99.90
13203;DHT22;6666;51.626;7.530;2024-03-08T02:29:34;2.40;99.90
13203;DHT22;6666;51.626;7.530;2024-03-08T02:32:02;2.40;99.90
13203;DHT22;6666;51.626;7.530;2024-03-08T02:34:31;2.30;99.90
13203;DHT22;6666;51.626;7.530;2024-03-08T02:36:59;2.30;99.90
13203;DHT22;6666;51.626;7.530;2024-03-08T02:39:29;2.30;99.90
13203;DHT22;6666;51.626;7.530;2024-03-08T02:41:59;2.20;99.90
13203;DHT22;6666;51.626;7.530;2024-03-08T02:44:27;2.20;99.90
13203;DHT22;6666;51.626;7.530;2024-03-08T02:46:55;2.30;99.90
13203;DHT22;6666;51.626;7.530;2024-03-08T02:49:23;2.30;99.90
13203;DHT22;6666;51.626;7.530;2024-03-08T02:51:51;2.30;99.90
13203;DHT22;6666;51.626;7.530;2024-03-08T02:54:19;2.30;99.90
13203;DHT22;6666;51.626;7.530;2024-03-08T02:56:49;2.10;99.90
13203;DHT22;6666;51.626;7.530;2024-03-08T02:59:18;2.10;99.90
13203;DHT22;6666;51.626;7.530;2024-03-08T03:01:46;2.10;99.90
13203;DHT22;6666;51.626;7.530;2024-03-08T03:04:14;2.10;99.90
13203;DHT22;6666;51.626;7.530;2024-03-08T03:06:42;2.10;99.90
13203;DHT22;6666;51.626;7.530;2024-03-08T03:09:10;2.10;99.90
13203;DHT22;6666;51.626;7.530;2024-03-08T03:11:38;2.10;99.90
13203;DHT22;6666;51.626;7.530;2024-03-08T03:14:08;2.10;99.90
13203;DHT22;6666;51.626;7.530;2024-03-08T03:16:36;2.10;99.90
13203;DHT22;6666;51.626;7.530;2024-03-08T03:19:03;2.10;99.90
13203;DHT22;6666;51.626;7.530;2024-03-08T03:21:32;2.20;99.90
13203;DHT22;6666;51.626;7.530;2024-03-08T03:24:03;2.20;99.90
13203;DHT22;6666;51.626;7.530;2024-03-08T03:26:34;2.10;99.90
13203;DHT22;6666;51.626;7.530;2024-03-08T03:29:04;2.00;99.90
13203;DHT22;6666;51.626;7.530;2024-03-08T03:31:34;2.00;99.90
13203;DHT22;6666;51.626;7.530;2024-03-08T03:34:03;2.00;99.90
13203;DHT22;6666;51.626;7.530;2024-03-08T03:36:31;2.00;99.90
13203;DHT22;6666;51.626;7.530;2024-03-08T03:39:01;2.00;99.90
13203;DHT22;6666;51.626;7.530;2024-03-08T03:41:37;1.90;99.90
13203;DHT22;6666;51.626;7.530;2024-03-08T03:44:05;1.90;99.90
13203;DHT22;6666;51.626;7.530;2024-03-08T03:46:35;1.90;99.90
13203;DHT22;6666;51.626;7.530;2024-03-08T03:49:04;1.90;99.90
13203;DHT22;6666;51.626;7.530;2024-03-08T03:51:32;1.90;99.90
13203;DHT22;6666;51.626;7.530;2024-03-08T03:54:00;1.90;99.90
13203;DHT22;6666;51.626;7.530;2024-03-08T03:56:30;1.90;99.90
13203;DHT22;6666;51.626;7.530;2024-03-08T03:58:58;1.90;99.90
13203;DHT22;6666;51.626;7.530;2024-03-08T04:01:26;1.90;99.90
13203;DHT22;6666;51.626;7.530;2024-03-08T04:03:57;1.90;99.90
13203;DHT22;6666;51.626;7.530;2024-03-08T04:06:25;1.90;99.90
13203;DHT22;6666;51.626;7.530;2024-03-08T04:08:54;2.00;99.90
13203;DHT22;6666;51.626;7.530;2024-03-08T04:11:22;2.00;99.90
13203;DHT22;6666;51.626;7.530;2024-03-08T04:13:50;2.00;99.90
13203;DHT22;6666;51.626;7.530;2024-03-08T04:16:19;1.80;99.90
13203;DHT22;6666;51.626;7.530;2024-03-08T04:18:47;1.70;99.90
13203;DHT22;6666;51.626;7.530;2024-03-08T04:21:16;1.70;99.90
13203;DHT22;6666;51.626;7.530;2024-03-08T04:23:44;1.70;99.90
13203;DHT22;6666;51.626;7.530;2024-03-08T04:26:23;1.70;99.90
13203;DHT22;6666;51.626;7.530;2024-03-08T04:28:52;1.80;99.90
13203;DHT22;6666;51.626;7.530;2024-03-08T04:31:20;1.70;99.90
13203;DHT22;6666;51.626;7.530;2024-03-08T04:33:49;1.80;99.90
13203;DHT22;6666;51.626;7.530;2024-03-08T04:36:18;1.70;99.90
13203;DHT22;6666;51.626;7.530;2024-03-08T04:38:47;1.70;99.90
13203;DHT22;6666;51.626;7.530;2024-03-08T04:41:15;1.70;99.90
13203;DHT22;6666;51.626;7.530;2024-03-08T04:43:43;1.60;99.90
13203;DHT22;6666;51.626;7.530;2024-03-08T04:46:11;1.60;99.90
13203;DHT22;6666;51.626;7.530;2024-03-08T04:48:39;1.60;99.90
13203;DHT22;6666;51.626;7.530;2024-03-08T04:51:09;1.70;99.90
13203;DHT22;6666;51.626;7.530;2024-03-08T04:53:38;1.50;99.90
13203;DHT22;6666;51.626;7.530;2024-03-08T04:56:07;1.50;99.90
13203;DHT22;6666;51.626;7.530;2024-03-08T04:58:35;1.50;99.90
13203;DHT22;6666;51.626;7.530;2024-03-08T05:01:04;1.60;99.90
13203;DHT22;6666;51.626;7.530;2024-03-08T05:03:32;1.50;99.90
13203;DHT22;6666;51.626;7.530;2024-03-08T05:06:00;1.60;99.90
13203;DHT22;6666;51.626;7.530;2024-03-08T05:08:30;1.60;99.90
13203;DHT22;6666;51.626;7.530;2024-03-08T05:10:59;1.50;99.90
13203;DHT22;6666;51.626;7.530;2024-03-08T05:13:30;1.50;99.90
13203;DHT22;6666;51.626;7.530;2024-03-08T05:15:59;1.40;99.90
13203;DHT22;6666;51.626;7.530;2024-03-08T05:18:27;1.50;99.90
13203;DHT22;6666;51.626;7.530;2024-03-08T05:20:55;1.60;99.90
13203;DHT22;6666;51.626;7.530;2024-03-08T05:23:24;1.40;99.90
13203;DHT22;6666;51.626;7.530;2024-03-08T05:25:52;1.40;99.90
13203;DHT22;6666;51.626;7.530;2024-03-08T05:28:21;1.40;99.90
13203;DHT22;6666;51.626;7.530;2024-03-08T05:30:49;1.30;99.90
13203;DHT22;6666;51.626;7.530;2024-03-08T05:33:17;1.30;99.90
13203;DHT22;6666;51.626;7.530;2024-03-08T05:35:46;1.30;99.90
13203;DHT22;6666;51.626;7.530;2024-03-08T05:38:14;1.30;99.90
13203;DHT22;6666;51.626;7.530;2024-03-08T05:40:42;1.30;99.90
13203;DHT22;6666;51.626;7.530;2024-03-08T05:43:11;1.40;99.90
13203;DHT22;6666;51.626;7.530;2024-03-08T05:45:40;1.30;99.90
13203;DHT22;6666;51.626;7.530;2024-03-08T05:48:08;1.30;99.90
13203;DHT22;6666;51.626;7.530;2024-03-08T05:50:37;1.30;99.90
13203;DHT22;6666;51.626;7.530;2024-03-08T05:53:05;1.40;99.90
13203;DHT22;6666;51.626;7.530;2024-03-08T05:55:34;1.30;99.90
13203;DHT22;6666;51.626;7.530;2024-03-08T05:58:02;1.30;99.90
13203;DHT22;6666;51.626;7.530;2024-03-08T06:00:30;1.30;99.90
13203;DHT22;6666;51.626;7.530;2024-03-08T06:03:00;1.30;99.90
13203;DHT22;6666;51.626;7.530;2024-03-08T06:05:28;1.30;99.90
13203;DHT22;6666;51.626;7.530;2024-03-08T06:07:56;1.30;99.90
13203;DHT22;6666;51.626;7.530;2024-03-08T06:10:24;1.30;99.90
13203;DHT22;6666;51.626;7.530;2024-03-08T06:12:53;1.30;99.90
13203;DHT22;6666;51.626;7.530;2024-03-08T06:15:21;1.30;99.90
13203;DHT22;6666;51.626;7.530;2024-03-08T06:17:49;1.30;99.90
13203;DHT22;6666;51.626;7.530;2024-03-08T06:20:21;1.60;99.90
13203;DHT22;6666;51.626;7.530;2024-03-08T06:22:53;1.40;99.90
13203;DHT22;6666;51.626;7.530;2024-03-08T06:25:21;1.40;99.90
13203;DHT22;6666;51.626;7.530;2024-03-08T06:27:49;1.30;99.90
13203;DHT22;6666;51.626;7.530;2024-03-08T06:30:18;1.40;99.90
13203;DHT22;6666;51.626;7.530;2024-03-08T06:32:47;1.40;99.90
13203;DHT22;6666;51.626;7.530;2024-03-08T06:35:16;1.40;99.90
13203;DHT22;6666;51.626;7.530;2024-03-08T06:37:45;1.40;99.90
13203;DHT22;6666;51.626;7.530;2024-03-08T06:40:14;1.40;99.90
13203;DHT22;6666;51.626;7.530;2024-03-08T06:42:42;1.50;99.90
13203;DHT22;6666;51.626;7.530;2024-03-08T06:45:10;1.50;99.90
13203;DHT22;6666;51.626;7.530;2024-03-08T06:47:39;1.50;99.90
13203;DHT22;6666;51.626;7.530;2024-03-08T06:50:09;1.60;99.90
13203;DHT22;6666;51.626;7.530;2024-03-08T06:52:38;1.60;99.90
13203;DHT22;6666;51.626;7.530;2024-03-08T06:55:09;1.60;99.90
13203;DHT22;6666;51.626;7.530;2024-03-08T06:57:39;1.60;99.90
13203;DHT22;6666;51.626;7.530;2024-03-08T07:00:09;1.60;99.90
13203;DHT22;6666;51.626;7.530;2024-03-08T07:02:40;1.70;99.90
13203;DHT22;6666;51.626;7.530;2024-03-08T07:05:08;1.80;99.90
13203;DHT22;6666;51.626;7.530;2024-03-08T07:07:37;1.80;99.90
13203;DHT22;6666;51.626;7.530;2024-03-08T07:10:09;1.80;99.90
13203;DHT22;6666;51.626;7.530;2024-03-08T07:12:41;1.80;99.90
13203;DHT22;6666;51.626;7.530;2024-03-08T07:15:10;1.80;99.90
13203;DHT22;6666;51.626;7.530;2024-03-08T07:17:41;1.90;99.90
13203;DHT22;6666;51.626;7.530;2024-03-08T07:20:11;1.90;99.90
13203;DHT22;6666;51.626;7.530;2024-03-08T07:22:40;2.00;99.90
13203;DHT22;6666;51.626;7.530;2024-03-08T07:25:14;2.00;99.90
13203;DHT22;6666;51.626;7.530;2024-03-08T07:27:49;2.10;99.90
13203;DHT22;6666;51.626;7.530;2024-03-08T07:30:18;2.10;99.90
13203;DHT22;6666;51.626;7.530;2024-03-08T07:33:04;2.10;99.90
13203;DHT22;6666;51.626;7.530;2024-03-08T07:35:34;2.20;99.90
13203;DHT22;6666;51.626;7.530;2024-03-08T07:38:04;2.20;99.90
13203;DHT22;6666;51.626;7.530;2024-03-08T07:40:35;2.30;99.90
13203;DHT22;6666;51.626;7.530;2024-03-08T07:43:03;2.40;99.90
13203;DHT22;6666;51.626;7.530;2024-03-08T07:45:32;2.50;99.90
13203;DHT22;6666;51.626;7.530;2024-03-08T07:48:00;2.50;99.90
13203;DHT22;6666;51.626;7.530;2024-03-08T07:50:36;2.50;99.90
13203;DHT22;6666;51.626;7.530;2024-03-08T07:53:06;2.60;99.90
13203;DHT22;6666;51.626;7.530;2024-03-08T07:55:36;2.70;99.90
13203;DHT22;6666;51.626;7.530;2024-03-08T07:58:04;2.70;99.90
13203;DHT22;6666;51.626;7.530;2024-03-08T08:00:33;2.80;99.90
13203;DHT22;6666;51.626;7.530;2024-03-08T08:03:03;2.80;99.90
13203;DHT22;6666;51.626;7.530;2024-03-08T08:05:31;2.90;99.90
13203;DHT22;6666;51.626;7.530;2024-03-08T08:08:02;2.90;99.90
13203;DHT22;6666;51.626;7.530;2024-03-08T08:10:34;2.90;99.90
13203;DHT22;6666;51.626;7.530;2024-03-08T08:13:03;3.00;99.90
13203;DHT22;6666;51.626;7.530;2024-03-08T08:15:32;3.20;99.90
13203;DHT22;6666;51.626;7.530;2024-03-08T08:18:01;3.20;99.90
13203;DHT22;6666;51.626;7.530;2024-03-08T08:20:32;3.30;99.90
13203;DHT22;6666;51.626;7.530;2024-03-08T08:23:00;3.30;99.90
13203;DHT22;6666;51.626;7.530;2024-03-08T08:25:28;3.50;99.90
13203;DHT22;6666;51.626;7.530;2024-03-08T08:27:58;3.50;99.90
13203;DHT22;6666;51.626;7.530;2024-03-08T08:30:27;3.60;99.90
13203;DHT22;6666;51.626;7.530;2024-03-08T08:32:55;3.60;99.90
13203;DHT22;6666;51.626;7.530;2024-03-08T08:35:27;3.60;99.90
13203;DHT22;6666;51.626;7.530;2024-03-08T08:37:56;3.70;99.90
13203;DHT22;6666;51.626;7.530;2024-03-08T08:40:25;3.80;99.90
13203;DHT22;6666;51.626;7.530;2024-03-08T08:42:57;3.80;99.90
13203;DHT22;6666;51.626;7.530;2024-03-08T08:45:25;3.90;99.90
13203;DHT22;6666;51.626;7.530;2024-03-08T08:47:54;4.00;99.90
13203;DHT22;6666;51.626;7.530;2024-03-08T08:50:22;4.00;99.90
13203;DHT22;6666;51.626;7.530;2024-03-08T08:52:51;4.10;99.90
13203;DHT22;6666;51.626;7.530;2024-03-08T08:55:20;4.10;99.90
13203;DHT22;6666;51.626;7.530;2024-03-08T08:57:52;4.10;99.90
13203;DHT22;6666;51.626;7.530;2024-03-08T09:00:21;4.20;99.90
13203;DHT22;6666;51.626;7.530;2024-03-08T09:02:54;4.30;99.90
13203;DHT22;6666;51.626;7.530;2024-03-08T09:05:25;4.40;99.90
13203;DHT22;6666;51.626;7.530;2024-03-08T09:07:53;4.40;99.90
13203;DHT22;6666;51.626;7.530;2024-03-08T09:10:21;4.40;99.90
13203;DHT22;6666;51.626;7.530;2024-03-08T09:12:56;4.50;99.90
13203;DHT22;6666;51.626;7.530;2024-03-08T09:15:26;4.50;99.90
13203;DHT22;6666;51.626;7.530;2024-03-08T09:17:55;4.60;99.90
13203;DHT22;6666;51.626;7.530;2024-03-08T09:20:23;4.60;99.90
13203;DHT22;6666;51.626;7.530;2024-03-08T09:22:53;4.80;99.90
13203;DHT22;6666;51.626;7.530;2024-03-08T09:25:22;4.90;99.90
13203;DHT22;6666;51.626;7.530;2024-03-08T09:27:50;5.10;99.90
13203;DHT22;6666;51.626;7.530;2024-03-08T09:30:18;5.10;99.90
13203;DHT22;6666;51.626;7.530;2024-03-08T09:32:49;5.10;99.90
13203;DHT22;6666;51.626;7.530;2024-03-08T09:35:19;5.30;99.90
13203;DHT22;6666;51.626;7.530;2024-03-08T09:37:47;5.20;99.90
13203;DHT22;6666;51.626;7.530;2024-03-08T09:40:18;5.30;99.90
13203;DHT22;6666;51.626;7.530;2024-03-08T09:42:48;5.50;99.90
13203;DHT22;6666;51.626;7.530;2024-03-08T09:45:17;5.60;99.90
13203;DHT22;6666;51.626;7.530;2024-03-08T09:47:45;5.60;99.90
13203;DHT22;6666;51.626;7.530;2024-03-08T09:50:15;5.60;99.90
13203;DHT22;6666;51.626;7.530;2024-03-08T09:52:47;5.70;99.90
13203;DHT22;6666;51.626;7.530;2024-03-08T09:55:16;5.70;99.90
13203;DHT22;6666;51.626;7.530;2024-03-08T09:57:49;5.80;99.90
13203;DHT22;6666;51.626;7.530;2024-03-08T10:00:32;5.90;99.90
13203;DHT22;6666;51.626;7.530;2024-03-08T10:03:01;5.90;99.90
13203;DHT22;6666;51.626;7.530;2024-03-08T10:05:31;6.10;99.90
13203;DHT22;6666;51.626;7.530;2024-03-08T10:08:02;6.20;99.90
13203;DHT22;6666;51.626;7.530;2024-03-08T10:10:33;6.20;99.90
13203;DHT22;6666;51.626;7.530;2024-03-08T10:13:01;6.10;99.90
13203;DHT22;6666;51.626;7.530;2024-03-08T10:15:29;6.20;99.90
13203;DHT22;6666;51.626;7.530;2024-03-08T10:17:59;6.20;99.90
13203;DHT22;6666;51.626;7.530;2024-03-08T10:20:31;6.30;99.90
13203;DHT22;6666;51.626;7.530;2024-03-08T10:23:01;6.30;99.90
13203;DHT22;6666;51.626;7.530;2024-03-08T10:25:37;6.30;99.90
13203;DHT22;6666;51.626;7.530;2024-03-08T10:28:06;6.40;99.90
13203;DHT22;6666;51.626;7.530;2024-03-08T10:30:35;6.40;99.90
13203;DHT22;6666;51.626;7.530;2024-03-08T10:33:03;6.50;99.90
13203;DHT22;6666;51.626;7.530;2024-03-08T10:35:33;6.60;99.90
13203;DHT22;6666;51.626;7.530;2024-03-08T10:38:05;6.60;99.90
13203;DHT22;6666;51.626;7.530;2024-03-08T10:40:38;6.60;99.90
13203;DHT22;6666;51.626;7.530;2024-03-08T10:43:13;6.70;99.90
13203;DHT22;6666;51.626;7.530;2024-03-08T10:45:46;6.70;99.90
13203;DHT22;6666;51.626;7.530;2024-03-08T10:48:26;6.90;99.90
13203;DHT22;6666;51.626;7.530;2024-03-08T10:51:04;6.90;99.90
13203;DHT22;6666;51.626;7.530;2024-03-08T10:53:34;7.00;99.90
13203;DHT22;6666;51.626;7.530;2024-03-08T10:56:08;7.00;99.90
13203;DHT22;6666;51.626;7.530;2024-03-08T10:58:41;7.10;99.90
13203;DHT22;6666;51.626;7.530;2024-03-08T11:01:11;7.10;99.90
13203;DHT22;6666;51.626;7.530;2024-03-08T11:03:47;7.20;99.90
13203;DHT22;6666;51.626;7.530;2024-03-08T11:06:29;7.30;99.90
13203;DHT22;6666;51.626;7.530;2024-03-08T11:08:59;7.30;99.90
13203;DHT22;6666;51.626;7.530;2024-03-08T11:11:29;7.40;99.90
13203;DHT22;6666;51.626;7.530;2024-03-08T11:14:04;7.50;99.90
13203;DHT22;6666;51.626;7.530;2024-03-08T11:16:39;7.50;99.90
13203;DHT22;6666;51.626;7.530;2024-03-08T11:19:27;7.60;99.70
13203;DHT22;6666;51.626;7.530;2024-03-08T11:22:00;7.60;99.90
13203;DHT22;6666;51.626;7.530;2024-03-08T11:24:39;7.70;99.30
13203;DHT22;6666;51.626;7.530;2024-03-08T11:27:09;7.80;99.40
13203;DHT22;6666;51.626;7.530;2024-03-08T11:29:39;7.80;99.00
13203;DHT22;6666;51.626;7.530;2024-03-08T11:32:11;7.90;99.20
13203;DHT22;6666;51.626;7.530;2024-03-08T11:34:40;7.90;98.90
13203;DHT22;6666;51.626;7.530;2024-03-08T11:37:15;8.00;97.90
13203;DHT22;6666;51.626;7.530;2024-03-08T11:39:49;8.30;98.80
13203;DHT22;6666;51.626;7.530;2024-03-08T11:42:18;8.40;97.10
13203;DHT22;6666;51.626;7.530;2024-03-08T11:44:48;8.40;95.70
13203;DHT22;6666;51.626;7.530;2024-03-08T11:47:16;8.50;97.10
13203;DHT22;6666;51.626;7.530;2024-03-08T11:49:44;8.40;96.60
13203;DHT22;6666;51.626;7.530;2024-03-08T11:52:17;8.70;97.80
13203;DHT22;6666;51.626;7.530;2024-03-08T11:54:51;8.60;96.30
13203;DHT22;6666;51.626;7.530;2024-03-08T11:57:22;8.70;96.20
13203;DHT22;6666;51.626;7.530;2024-03-08T11:59:51;8.90;95.70
13203;DHT22;6666;51.626;7.530;2024-03-08T12:02:23;8.90;93.20
13203;DHT22;6666;51.626;7.530;2024-03-08T12:04:56;8.90;93.10
13203;DHT22;6666;51.626;7.530;2024-03-08T12:07:28;9.10;92.70
13203;DHT22;6666;51.626;7.530;2024-03-08T12:10:15;9.00;92.20
13203;DHT22;6666;51.626;7.530;2024-03-08T12:12:45;9.10;92.00
13203;DHT22;6666;51.626;7.530;2024-03-08T12:15:14;9.10;90.10
13203;DHT22;6666;51.626;7.530;2024-03-08T12:17:42;9.10;87.30
13203;DHT22;6666;51.626;7.530;2024-03-08T12:20:12;9.20;88.40
13203;DHT22;6666;51.626;7.530;2024-03-08T12:22:43;9.00;86.60
13203;DHT22;6666;51.626;7.530;2024-03-08T12:25:11;9.10;86.40
13203;DHT22;6666;51.626;7.530;2024-03-08T12:27:41;9.10;85.70
13203;DHT22;6666;51.626;7.530;2024-03-08T12:30:20;9.10;83.20
13203;DHT22;6666;51.626;7.530;2024-03-08T12:32:52;9.10;84.20
13203;DHT22;6666;51.626;7.530;2024-03-08T12:35:21;9.20;81.60
13203;DHT22;6666;51.626;7.530;2024-03-08T12:37:53;9.20;83.30
13203;DHT22;6666;51.626;7.530;2024-03-08T12:40:26;9.40;85.40
13203;DHT22;6666;51.626;7.530;2024-03-08T12:42:55;9.30;83.80
13203;DHT22;6666;51.626;7.530;2024-03-08T12:45:23;9.30;83.10
13203;DHT22;6666;51.626;7.530;2024-03-08T12:47:52;9.40;81.30
13203;DHT22;6666;51.626;7.530;2024-03-08T12:50:21;9.50;82.90
13203;DHT22;6666;51.626;7.530;2024-03-08T12:52:50;9.50;81.70
13203;DHT22;6666;51.626;7.530;2024-03-08T12:55:21;9.40;82.80
13203;DHT22;6666;51.626;7.530;2024-03-08T12:57:49;9.30;84.90
13203;DHT22;6666;51.626;7.530;2024-03-08T13:00:20;9.40;83.70
13203;DHT22;6666;51.626;7.530;2024-03-08T13:02:50;9.40;86.30
13203;DHT22;6666;51.626;7.530;2024-03-08T13:05:18;9.50;85.10
13203;DHT22;6666;51.626;7.530;2024-03-08T13:07:47;9.50;82.80
13203;DHT22;6666;51.626;7.530;2024-03-08T13:10:16;9.40;84.50
13203;DHT22;6666;51.626;7.530;2024-03-08T13:12:48;9.40;84.50
13203;DHT22;6666;51.626;7.530;2024-03-08T13:15:20;9.30;84.40
13203;DHT22;6666;51.626;7.530;2024-03-08T13:17:48;9.40;84.60
13203;DHT22;6666;51.626;7.530;2024-03-08T13:20:17;9.40;85.00
13203;DHT22;6666;51.626;7.530;2024-03-08T13:22:56;9.30;84.90
13203;DHT22;6666;51.626;7.530;2024-03-08T13:25:27;9.40;87.50
13203;DHT22;6666;51.626;7.530;2024-03-08T13:27:56;9.40;86.40
13203;DHT22;6666;51.626;7.530;2024-03-08T13:30:27;9.40;87.40
13203;DHT22;6666;51.626;7.530;2024-03-08T13:32:57;9.40;85.90
13203;DHT22;6666;51.626;7.530;2024-03-08T13:35:25;9.50;87.50
13203;DHT22;6666;51.626;7.530;2024-03-08T13:37:56;9.40;88.10
13203;DHT22;6666;51.626;7.530;2024-03-08T13:40:25;9.40;87.80
13203;DHT22;6666;51.626;7.530;2024-03-08T13:42:53;9.30;87.80
13203;DHT22;6666;51.626;7.530;2024-03-08T13:45:22;9.30;86.40
13203;DHT22;6666;51.626;7.530;2024-03-08T13:47:52;9.40;87.10
13203;DHT22;6666;51.626;7.530;2024-03-08T13:50:21;9.40;84.90
13203;DHT22;6666;51.626;7.530;2024-03-08T13:52:50;9.50;88.10
13203;DHT22;6666;51.626;7.530;2024-03-08T13:55:22;9.40;87.80
13203;DHT22;6666;51.626;7.530;2024-03-08T13:57:52;9.40;87.70
13203;DHT22;6666;51.626;7.530;2024-03-08T14:00:22;9.40;88.00
13203;DHT22;6666;51.626;7.530;2024-03-08T14:02:54;9.40;87.60
13203;DHT22;6666;51.626;7.530;2024-03-08T14:05:22;9.50;88.00
13203;DHT22;6666;51.626;7.530;2024-03-08T14:07:51;9.40;89.60
13203;DHT22;6666;51.626;7.530;2024-03-08T14:10:21;9.50;90.10
13203;DHT22;6666;51.626;7.530;2024-03-08T14:12:51;9.50;86.50
13203;DHT22;6666;51.626;7.530;2024-03-08T14:15:20;9.30;87.50
13203;DHT22;6666;51.626;7.530;2024-03-08T14:17:54;9.50;88.30
13203;DHT22;6666;51.626;7.530;2024-03-08T14:20:22;9.40;88.60
13203;DHT22;6666;51.626;7.530;2024-03-08T14:22:53;9.50;90.00
13203;DHT22;6666;51.626;7.530;2024-03-08T14:25:23;9.50;88.90
13203;DHT22;6666;51.626;7.530;2024-03-08T14:27:54;9.40;88.40
13203;DHT22;6666;51.626;7.530;2024-03-08T14:30:25;9.50;87.80
13203;DHT22;6666;51.626;7.530;2024-03-08T14:33:06;9.40;88.30
13203;DHT22;6666;51.626;7.530;2024-03-08T14:35:37;9.40;87.70
13203;DHT22;6666;51.626;7.530;2024-03-08T14:38:05;9.40;87.40
13203;DHT22;6666;51.626;7.530;2024-03-08T14:40:35;9.40;86.90
13203;DHT22;6666;51.626;7.530;2024-03-08T14:43:04;9.40;88.60
13203;DHT22;6666;51.626;7.530;2024-03-08T14:45:34;9.50;87.60
13203;DHT22;6666;51.626;7.530;2024-03-08T14:48:06;9.40;87.80
13203;DHT22;6666;51.626;7.530;2024-03-08T14:50:35;9.40;87.50
13203;DHT22;6666;51.626;7.530;2024-03-08T14:53:04;9.30;87.20
13203;DHT22;6666;51.626;7.530;2024-03-08T14:55:36;9.40;86.20
13203;DHT22;6666;51.626;7.530;2024-03-08T14:58:04;9.40;88.30
13203;DHT22;6666;51.626;7.530;2024-03-08T15:00:38;9.40;89.90
13203;DHT22;6666;51.626;7.530;2024-03-08T15:03:10;9.50;87.60
13203;DHT22;6666;51.626;7.530;2024-03-08T15:05:40;9.50;85.10
13203;DHT22;6666;51.626;7.530;2024-03-08T15:08:14;9.40;89.20
13203;DHT22;6666;51.626;7.530;2024-03-08T15:10:47;9.40;86.80
13203;DHT22;6666;51.626;7.530;2024-03-08T15:13:21;9.50;87.80
13203;DHT22;6666;51.626;7.530;2024-03-08T15:15:50;9.50;88.10
13203;DHT22;6666;51.626;7.530;2024-03-08T15:18:24;9.40;87.10
13203;DHT22;6666;51.626;7.530;2024-03-08T15:20:57;9.40;88.30
13203;DHT22;6666;51.626;7.530;2024-03-08T15:23:25;9.30;88.00
13203;DHT22;6666;51.626;7.530;2024-03-08T15:25:55;9.30;88.20
13203;DHT22;6666;51.626;7.530;2024-03-08T15:28:23;9.30;87.90
13203;DHT22;6666;51.626;7.530;2024-03-08T15:30:58;9.30;89.90
13203;DHT22;6666;51.626;7.530;2024-03-08T15:33:34;9.40;89.90
13203;DHT22;6666;51.626;7.530;2024-03-08T15:36:08;9.40;89.70
13203;DHT22;6666;51.626;7.530;2024-03-08T15:38:41;9.40;90.20
13203;DHT22;6666;51.626;7.530;2024-03-08T15:41:10;9.30;90.20
13203;DHT22;6666;51.626;7.530;2024-03-08T15:43:40;9.30;90.50
13203;DHT22;6666;51.626;7.530;2024-03-08T15:46:09;9.30;90.50
13203;DHT22;6666;51.626;7.530;2024-03-08T15:48:39;9.30;90.30
13203;DHT22;6666;51.626;7.530;2024-03-08T15:51:10;9.30;90.90
13203;DHT22;6666;51.626;7.530;2024-03-08T15:53:38;9.30;91.80
13203;DHT22;6666;51.626;7.530;2024-03-08T15:56:07;9.30;91.00
13203;DHT22;6666;51.626;7.530;2024-03-08T15:58:36;9.30;91.80
13203;DHT22;6666;51.626;7.530;2024-03-08T16:01:05;9.30;91.90
13203;DHT22;6666;51.626;7.530;2024-03-08T16:03:34;9.30;91.10
13203;DHT22;6666;51.626;7.530;2024-03-08T16:06:04;9.30;90.90
13203;DHT22;6666;51.626;7.530;2024-03-08T16:08:33;9.30;90.90
13203;DHT22;6666;51.626;7.530;2024-03-08T16:11:04;9.30;90.30
13203;DHT22;6666;51.626;7.530;2024-03-08T16:13:34;9.30;91.90
13203;DHT22;6666;51.626;7.530;2024-03-08T16:16:05;9.20;90.70
13203;DHT22;6666;51.626;7.530;2024-03-08T16:18:34;9.20;91.60